Nashville, Tennessee
Traffic Map
Current Weather Conditions
Nashville, Tennessee
Overcast Haze
Overcast
34°
Feels Like: 34°
Wind Chill: 34° Ceiling: 900
Heat Index: 34° Visibility: 6mi
Dew Point: 30° Wind: 0mph
Humidity: 87% Direction: ° ()
Pressure: 30.25in Gusts: 0mph
Raw Report DataKBNA 181317Z 00000KT 6SM BR BKN009 OVC055 01/M01 A3025 RMK AO2
Traffic Incident Summary
Active as of:
Severity:
Category:
InformationThere was an issue retrieving the traffic information for this location. Please try a different location or try again shortly.
Advertisements
Track Severe Weather on mobile